sensor_id;sensor_type;location;lat;lon;timestamp;pressure;altitude;pressure_sealevel;temperature;humidity
49072;BME280;52656;52.610;10.236;2023-02-17T00:02:21;101315.09;;;8.20;79.36
49072;BME280;52656;52.610;10.236;2023-02-17T00:04:47;101308.13;;;8.18;80.02
49072;BME280;52656;52.610;10.236;2023-02-17T00:07:12;101309.41;;;8.40;78.91
49072;BME280;52656;52.610;10.236;2023-02-17T00:09:37;101310.78;;;8.58;78.03
49072;BME280;52656;52.610;10.236;2023-02-17T00:12:03;101310.78;;;8.58;78.31
49072;BME280;52656;52.610;10.236;2023-02-17T00:14:28;101305.38;;;8.62;77.50
49072;BME280;52656;52.610;10.236;2023-02-17T00:16:53;101307.81;;;8.73;77.61
49072;BME280;52656;52.610;10.236;2023-02-17T00:19:19;101308.59;;;8.77;77.18
49072;BME280;52656;52.610;10.236;2023-02-17T00:24:15;101302.13;;;8.51;78.43
49072;BME280;52656;52.610;10.236;2023-02-17T00:26:41;101297.00;;;8.44;79.19
49072;BME280;52656;52.610;10.236;2023-02-17T00:29:06;101293.00;;;8.66;78.14
49072;BME280;52656;52.610;10.236;2023-02-17T00:31:31;101298.84;;;8.79;77.52
49072;BME280;52656;52.610;10.236;2023-02-17T00:33:57;101304.09;;;8.80;77.36
49072;BME280;52656;52.610;10.236;2023-02-17T00:36:23;101288.34;;;8.77;77.62
49072;BME280;52656;52.610;10.236;2023-02-17T00:38:49;101303.22;;;8.81;76.97
49072;BME280;52656;52.610;10.236;2023-02-17T00:41:16;101297.09;;;8.79;77.72
49072;BME280;52656;52.610;10.236;2023-02-17T00:43:41;101302.19;;;8.87;76.88
49072;BME280;52656;52.610;10.236;2023-02-17T00:46:06;101293.41;;;8.86;77.34
49072;BME280;52656;52.610;10.236;2023-02-17T00:48:32;101291.63;;;8.87;77.63
49072;BME280;52656;52.610;10.236;2023-02-17T00:50:57;101290.56;;;8.94;77.25
49072;BME280;52656;52.610;10.236;2023-02-17T00:53:22;101286.25;;;8.90;77.36
49072;BME280;52656;52.610;10.236;2023-02-17T00:55:48;101273.03;;;8.90;77.69
49072;BME280;52656;52.610;10.236;2023-02-17T00:58:14;101265.16;;;8.88;78.22
49072;BME280;52656;52.610;10.236;2023-02-17T01:00:39;101268.53;;;8.95;77.79
49072;BME280;52656;52.610;10.236;2023-02-17T01:03:05;101260.63;;;8.95;77.86
49072;BME280;52656;52.610;10.236;2023-02-17T01:05:30;101262.28;;;8.98;77.78
49072;BME280;52656;52.610;10.236;2023-02-17T01:07:56;101260.50;;;9.00;77.72
49072;BME280;52656;52.610;10.236;2023-02-17T01:10:21;101257.00;;;8.99;77.72
49072;BME280;52656;52.610;10.236;2023-02-17T01:12:47;101257.63;;;9.09;77.21
49072;BME280;52656;52.610;10.236;2023-02-17T01:15:12;101254.97;;;9.09;77.71
49072;BME280;52656;52.610;10.236;2023-02-17T01:17:38;101249.81;;;9.04;78.20
49072;BME280;52656;52.610;10.236;2023-02-17T01:20:03;101242.75;;;9.05;78.10
49072;BME280;52656;52.610;10.236;2023-02-17T01:22:29;101240.91;;;9.08;78.91
49072;BME280;52656;52.610;10.236;2023-02-17T01:24:54;101240.72;;;9.14;77.51
49072;BME280;52656;52.610;10.236;2023-02-17T01:27:20;101236.25;;;9.16;77.44
49072;BME280;52656;52.610;10.236;2023-02-17T01:29:45;101231.66;;;9.25;77.70
49072;BME280;52656;52.610;10.236;2023-02-17T01:32:10;101233.16;;;9.01;78.62
49072;BME280;52656;52.610;10.236;2023-02-17T01:34:36;101226.28;;;8.93;79.56
49072;BME280;52656;52.610;10.236;2023-02-17T01:37:02;101227.25;;;8.91;80.60
49072;BME280;52656;52.610;10.236;2023-02-17T01:39:27;101213.06;;;8.95;79.39
49072;BME280;52656;52.610;10.236;2023-02-17T01:41:52;101208.59;;;8.97;79.73
49072;BME280;52656;52.610;10.236;2023-02-17T01:44:20;101217.13;;;9.07;79.44
49072;BME280;52656;52.610;10.236;2023-02-17T01:46:48;101213.78;;;9.00;80.14
49072;BME280;52656;52.610;10.236;2023-02-17T01:51:46;101196.72;;;9.12;80.37
49072;BME280;52656;52.610;10.236;2023-02-17T01:54:21;101202.03;;;9.12;80.22
49072;BME280;52656;52.610;10.236;2023-02-17T01:56:50;101195.84;;;9.13;80.42
49072;BME280;52656;52.610;10.236;2023-02-17T01:59:20;101192.31;;;9.12;81.11
49072;BME280;52656;52.610;10.236;2023-02-17T02:01:49;101190.41;;;9.19;80.31
49072;BME280;52656;52.610;10.236;2023-02-17T02:04:18;101194.72;;;9.22;80.37
49072;BME280;52656;52.610;10.236;2023-02-17T02:06:44;101187.69;;;9.22;80.62
49072;BME280;52656;52.610;10.236;2023-02-17T02:09:20;101191.06;;;9.26;80.88
49072;BME280;52656;52.610;10.236;2023-02-17T02:11:48;101185.91;;;9.21;80.66
49072;BME280;52656;52.610;10.236;2023-02-17T02:14:14;101185.03;;;9.22;81.00
49072;BME280;52656;52.610;10.236;2023-02-17T02:22:59;101183.81;;;9.34;80.52
49072;BME280;52656;52.610;10.236;2023-02-17T02:34:21;101165.22;;;9.37;80.44
49072;BME280;52656;52.610;10.236;2023-02-17T02:36:59;101167.09;;;9.33;81.71
49072;BME280;52656;52.610;10.236;2023-02-17T02:39:34;101167.91;;;9.35;81.70
49072;BME280;52656;52.610;10.236;2023-02-17T02:42:05;101170.53;;;9.37;81.62
49072;BME280;52656;52.610;10.236;2023-02-17T02:44:32;101158.94;;;9.41;81.72
49072;BME280;52656;52.610;10.236;2023-02-17T02:47:40;101153.75;;;9.38;83.60
49072;BME280;52656;52.610;10.236;2023-02-17T02:49:51;101136.06;;;9.40;82.43
49072;BME280;52656;52.610;10.236;2023-02-17T02:52:33;101143.94;;;9.41;84.02
49072;BME280;52656;52.610;10.236;2023-02-17T02:57:51;101124.72;;;9.66;83.02
49072;BME280;52656;52.610;10.236;2023-02-17T03:00:33;101124.31;;;9.50;84.57
49072;BME280;52656;52.610;10.236;2023-02-17T03:03:12;101108.53;;;9.47;84.62
49072;BME280;52656;52.610;10.236;2023-02-17T03:05:54;101109.44;;;9.46;85.14
49072;BME280;52656;52.610;10.236;2023-02-17T03:08:35;101113.81;;;9.47;85.51
49072;BME280;52656;52.610;10.236;2023-02-17T03:11:02;101109.22;;;9.54;84.58
49072;BME280;52656;52.610;10.236;2023-02-17T03:13:28;101107.31;;;9.59;84.49
49072;BME280;52656;52.610;10.236;2023-02-17T03:15:53;101101.69;;;9.69;85.24
49072;BME280;52656;52.610;10.236;2023-02-17T03:18:19;101094.69;;;9.67;84.80
49072;BME280;52656;52.610;10.236;2023-02-17T03:20:53;101091.03;;;9.71;84.91
49072;BME280;52656;52.610;10.236;2023-02-17T03:23:20;101093.81;;;9.66;84.98
49072;BME280;52656;52.610;10.236;2023-02-17T03:25:45;101091.25;;;9.95;83.23
49072;BME280;52656;52.610;10.236;2023-02-17T03:28:12;101088.41;;;10.01;83.06
49072;BME280;52656;52.610;10.236;2023-02-17T03:30:37;101101.00;;;9.92;84.00
49072;BME280;52656;52.610;10.236;2023-02-17T03:33:03;101104.34;;;9.99;83.05
49072;BME280;52656;52.610;10.236;2023-02-17T03:35:28;101093.78;;;9.98;84.12
49072;BME280;52656;52.610;10.236;2023-02-17T03:37:54;101101.53;;;10.04;83.78
49072;BME280;52656;52.610;10.236;2023-02-17T03:40:19;101091.91;;;10.01;83.34
49072;BME280;52656;52.610;10.236;2023-02-17T03:42:44;101093.63;;;10.02;83.65
49072;BME280;52656;52.610;10.236;2023-02-17T03:45:10;101084.78;;;10.03;83.21
49072;BME280;52656;52.610;10.236;2023-02-17T03:47:35;101078.03;;;9.95;83.62
49072;BME280;52656;52.610;10.236;2023-02-17T03:50:00;101079.03;;;9.90;83.88
49072;BME280;52656;52.610;10.236;2023-02-17T03:52:26;101076.84;;;10.03;83.26
49072;BME280;52656;52.610;10.236;2023-02-17T03:54:51;101066.16;;;10.06;83.38
49072;BME280;52656;52.610;10.236;2023-02-17T03:57:17;101067.88;;;10.07;83.18
49072;BME280;52656;52.610;10.236;2023-02-17T03:59:42;101060.16;;;10.01;83.68
49072;BME280;52656;52.610;10.236;2023-02-17T04:02:08;101064.44;;;10.05;83.29
49072;BME280;52656;52.610;10.236;2023-02-17T04:04:33;101064.13;;;10.14;81.99
49072;BME280;52656;52.610;10.236;2023-02-17T04:07:00;101059.63;;;10.16;82.32
49072;BME280;52656;52.610;10.236;2023-02-17T04:09:25;101057.00;;;9.90;83.72
49072;BME280;52656;52.610;10.236;2023-02-17T04:11:51;101053.47;;;9.89;83.94
49072;BME280;52656;52.610;10.236;2023-02-17T04:14:16;101063.88;;;9.96;83.35
49072;BME280;52656;52.610;10.236;2023-02-17T04:16:41;101060.25;;;9.98;83.65
49072;BME280;52656;52.610;10.236;2023-02-17T04:19:07;101048.78;;;9.98;84.47
49072;BME280;52656;52.610;10.236;2023-02-17T04:21:32;101051.44;;;9.98;84.53
49072;BME280;52656;52.610;10.236;2023-02-17T04:24:01;101058.50;;;9.97;84.96
49072;BME280;52656;52.610;10.236;2023-02-17T04:26:27;101056.84;;;9.95;84.81
49072;BME280;52656;52.610;10.236;2023-02-17T04:28:53;101065.69;;;9.93;85.67
49072;BME280;52656;52.610;10.236;2023-02-17T04:31:18;101064.94;;;9.90;85.72
49072;BME280;52656;52.610;10.236;2023-02-17T04:33:43;101056.09;;;9.91;86.34
49072;BME280;52656;52.610;10.236;2023-02-17T04:36:09;101059.66;;;9.90;86.56
49072;BME280;52656;52.610;10.236;2023-02-17T04:38:36;101053.47;;;9.89;86.66
49072;BME280;52656;52.610;10.236;2023-02-17T04:41:01;101051.81;;;9.85;87.78
49072;BME280;52656;52.610;10.236;2023-02-17T04:43:27;101050.81;;;9.89;87.27
49072;BME280;52656;52.610;10.236;2023-02-17T04:45:53;101055.06;;;9.95;86.44
49072;BME280;52656;52.610;10.236;2023-02-17T04:48:18;101053.13;;;10.00;86.71
49072;BME280;52656;52.610;10.236;2023-02-17T04:50:45;101047.13;;;9.95;86.80
49072;BME280;52656;52.610;10.236;2023-02-17T04:53:10;101051.44;;;9.98;87.12
49072;BME280;52656;52.610;10.236;2023-02-17T04:55:36;101052.31;;;9.98;87.87
49072;BME280;52656;52.610;10.236;2023-02-17T04:58:01;101043.41;;;10.01;86.83
49072;BME280;52656;52.610;10.236;2023-02-17T05:00:26;101046.06;;;10.01;86.89
49072;BME280;52656;52.610;10.236;2023-02-17T05:02:52;101034.50;;;10.03;86.52
49072;BME280;52656;52.610;10.236;2023-02-17T05:05:17;101037.97;;;10.05;87.21
49072;BME280;52656;52.610;10.236;2023-02-17T05:07:44;101035.47;;;10.01;87.79
49072;BME280;52656;52.610;10.236;2023-02-17T05:10:10;101041.56;;;10.03;87.77
49072;BME280;52656;52.610;10.236;2023-02-17T05:12:35;101034.78;;;9.94;87.82
49072;BME280;52656;52.610;10.236;2023-02-17T05:15:00;101038.13;;;10.01;87.06
49072;BME280;52656;52.610;10.236;2023-02-17T05:17:26;101026.53;;;10.05;86.53
49072;BME280;52656;52.610;10.236;2023-02-17T05:19:51;101026.59;;;10.02;87.06
49072;BME280;52656;52.610;10.236;2023-02-17T05:22:16;101013.28;;;10.05;87.34
49072;BME280;52656;52.610;10.236;2023-02-17T05:24:42;101005.34;;;10.05;87.17
49072;BME280;52656;52.610;10.236;2023-02-17T05:27:07;100997.34;;;10.06;86.98
49072;BME280;52656;52.610;10.236;2023-02-17T05:29:33;100993.94;;;10.03;88.41
49072;BME280;52656;52.610;10.236;2023-02-17T05:31:58;100999.13;;;10.06;87.84
49072;BME280;52656;52.610;10.236;2023-02-17T05:34:23;100994.69;;;10.06;87.77
49072;BME280;52656;52.610;10.236;2023-02-17T05:36:49;100986.91;;;10.02;88.20
49072;BME280;52656;52.610;10.236;2023-02-17T05:39:14;100984.03;;;10.08;87.81
49072;BME280;52656;52.610;10.236;2023-02-17T05:41:39;100988.47;;;10.07;87.12
49072;BME280;52656;52.610;10.236;2023-02-17T05:44:05;100980.66;;;10.04;87.82
49072;BME280;52656;52.610;10.236;2023-02-17T05:46:30;100980.94;;;10.22;86.81
49072;BME280;52656;52.610;10.236;2023-02-17T05:48:55;100979.91;;;10.26;86.88
49072;BME280;52656;52.610;10.236;2023-02-17T05:51:21;100978.88;;;10.30;85.86
49072;BME280;52656;52.610;10.236;2023-02-17T05:53:46;100969.91;;;10.34;85.85
49072;BME280;52656;52.610;10.236;2023-02-17T05:56:11;100965.56;;;10.33;85.68
49072;BME280;52656;52.610;10.236;2023-02-17T05:58:36;100957.06;;;10.23;86.94
49072;BME280;52656;52.610;10.236;2023-02-17T06:01:07;100956.84;;;10.29;86.48
49072;BME280;52656;52.610;10.236;2023-02-17T06:03:33;100959.72;;;10.23;86.37
49072;BME280;52656;52.610;10.236;2023-02-17T06:05:58;100951.97;;;10.17;86.66
49072;BME280;52656;52.610;10.236;2023-02-17T06:08:23;100958.69;;;10.27;86.03
49072;BME280;52656;52.610;10.236;2023-02-17T06:10:48;100968.34;;;10.28;85.34
49072;BME280;52656;52.610;10.236;2023-02-17T06:13:16;100961.56;;;10.46;84.88
49072;BME280;52656;52.610;10.236;2023-02-17T06:15:41;100964.09;;;10.49;83.92
49072;BME280;52656;52.610;10.236;2023-02-17T06:18:06;100958.91;;;10.46;84.64
49072;BME280;52656;52.610;10.236;2023-02-17T06:20:32;100959.69;;;10.48;83.80
49072;BME280;52656;52.610;10.236;2023-02-17T06:22:57;100957.13;;;10.47;83.67
49072;BME280;52656;52.610;10.236;2023-02-17T06:25:22;100955.84;;;10.57;83.06
49072;BME280;52656;52.610;10.236;2023-02-17T06:27:48;100959.38;;;10.57;82.91
49072;BME280;52656;52.610;10.236;2023-02-17T06:30:13;100961.22;;;10.55;82.67
49072;BME280;52656;52.610;10.236;2023-02-17T06:32:39;100963.69;;;10.60;82.78
49072;BME280;52656;52.610;10.236;2023-02-17T06:35:04;100961.06;;;10.60;82.91
49072;BME280;52656;52.610;10.236;2023-02-17T06:37:30;100954.94;;;10.58;82.82
49072;BME280;52656;52.610;10.236;2023-02-17T06:39:55;100942.69;;;10.55;82.91
49072;BME280;52656;52.610;10.236;2023-02-17T06:42:20;100943.63;;;10.53;82.16
49072;BME280;52656;52.610;10.236;2023-02-17T06:44:46;100943.44;;;10.59;82.07
49072;BME280;52656;52.610;10.236;2023-02-17T06:47:12;100940.56;;;10.65;81.20
49072;BME280;52656;52.610;10.236;2023-02-17T06:49:37;100937.84;;;10.66;81.06
49072;BME280;52656;52.610;10.236;2023-02-17T06:52:02;100926.16;;;10.72;81.02
49072;BME280;52656;52.610;10.236;2023-02-17T06:54:28;100926.09;;;10.74;80.54
49072;BME280;52656;52.610;10.236;2023-02-17T06:56:53;100918.41;;;10.67;80.63
49072;BME280;52656;52.610;10.236;2023-02-17T06:59:18;100920.72;;;10.75;80.31
49072;BME280;52656;52.610;10.236;2023-02-17T07:01:44;100922.53;;;10.75;80.17
49072;BME280;52656;52.610;10.236;2023-02-17T07:04:09;100928.50;;;10.80;79.54
49072;BME280;52656;52.610;10.236;2023-02-17T07:06:34;100931.91;;;10.83;79.18
49072;BME280;52656;52.610;10.236;2023-02-17T07:09:00;100934.63;;;10.82;78.97
49072;BME280;52656;52.610;10.236;2023-02-17T07:11:26;100933.81;;;10.56;79.74
49072;BME280;52656;52.610;10.236;2023-02-17T07:13:55;100937.28;;;10.58;80.14
49072;BME280;52656;52.610;10.236;2023-02-17T07:16:20;100929.53;;;10.52;80.16
49072;BME280;52656;52.610;10.236;2023-02-17T07:18:46;100938.06;;;10.60;79.76
49072;BME280;52656;52.610;10.236;2023-02-17T07:21:11;100928.34;;;10.61;80.48
49072;BME280;52656;52.610;10.236;2023-02-17T07:23:36;100927.19;;;10.44;81.30
49072;BME280;52656;52.610;10.236;2023-02-17T07:26:05;100916.13;;;10.08;83.58
49072;BME280;52656;52.610;10.236;2023-02-17T07:28:32;100913.84;;;9.98;83.97
49072;BME280;52656;52.610;10.236;2023-02-17T07:31:04;100918.19;;;9.99;84.98
49072;BME280;52656;52.610;10.236;2023-02-17T07:33:29;100910.38;;;9.69;85.91
49072;BME280;52656;52.610;10.236;2023-02-17T07:35:54;100904.84;;;9.77;87.06
49072;BME280;52656;52.610;10.236;2023-02-17T07:38:19;100902.75;;;9.86;85.06
49072;BME280;52656;52.610;10.236;2023-02-17T07:40:45;100905.25;;;9.91;84.96
49072;BME280;52656;52.610;10.236;2023-02-17T07:43:10;100890.06;;;9.69;84.44
49072;BME280;52656;52.610;10.236;2023-02-17T07:45:35;100891.63;;;9.75;84.32
49072;BME280;52656;52.610;10.236;2023-02-17T07:48:01;100897.09;;;9.71;84.87
49072;BME280;52656;52.610;10.236;2023-02-17T07:50:26;100889.06;;;10.00;83.35
49072;BME280;52656;52.610;10.236;2023-02-17T07:52:51;100890.63;;;9.79;83.51
49072;BME280;52656;52.610;10.236;2023-02-17T07:55:17;100876.16;;;9.91;82.85
49072;BME280;52656;52.610;10.236;2023-02-17T07:57:42;100873.34;;;9.96;83.26
49072;BME280;52656;52.610;10.236;2023-02-17T08:00:08;100874.53;;;9.87;83.26
49072;BME280;52656;52.610;10.236;2023-02-17T08:02:33;100870.53;;;9.74;83.89
49072;BME280;52656;52.610;10.236;2023-02-17T08:04:58;100867.66;;;9.80;83.48
49072;BME280;52656;52.610;10.236;2023-02-17T08:07:24;100863.38;;;9.77;83.22
49072;BME280;52656;52.610;10.236;2023-02-17T08:09:49;100855.41;;;10.04;82.85
49072;BME280;52656;52.610;10.236;2023-02-17T08:12:33;100871.31;;;10.02;82.44
49072;BME280;52656;52.610;10.236;2023-02-17T08:15:17;100845.63;;;10.06;81.79
49072;BME280;52656;52.610;10.236;2023-02-17T08:17:42;100853.25;;;9.90;82.85
49072;BME280;52656;52.610;10.236;2023-02-17T08:20:08;100853.66;;;10.03;82.88
49072;BME280;52656;52.610;10.236;2023-02-17T08:22:33;100854.84;;;9.94;82.92
49072;BME280;52656;52.610;10.236;2023-02-17T08:24:59;100856.03;;;9.85;83.43
49072;BME280;52656;52.610;10.236;2023-02-17T08:27:24;100847.69;;;9.98;83.10
49072;BME280;52656;52.610;10.236;2023-02-17T08:29:49;100845.22;;;10.16;82.25
49072;BME280;52656;52.610;10.236;2023-02-17T08:32:15;100843.44;;;10.17;81.83
49072;BME280;52656;52.610;10.236;2023-02-17T08:34:41;100838.09;;;10.18;82.21
49072;BME280;52656;52.610;10.236;2023-02-17T08:37:07;100822.84;;;10.02;83.17
49072;BME280;52656;52.610;10.236;2023-02-17T08:39:33;100832.41;;;10.29;82.69
49072;BME280;52656;52.610;10.236;2023-02-17T08:41:58;100829.75;;;10.29;82.58
49072;BME280;52656;52.610;10.236;2023-02-17T08:44:24;100844.72;;;10.30;82.45
49072;BME280;52656;52.610;10.236;2023-02-17T08:46:50;100839.75;;;10.21;82.86
49072;BME280;52656;52.610;10.236;2023-02-17T08:49:22;100834.94;;;10.32;82.76
49072;BME280;52656;52.610;10.236;2023-02-17T08:51:49;100824.19;;;10.37;82.83
49072;BME280;52656;52.610;10.236;2023-02-17T08:54:14;100824.94;;;10.40;82.17
49072;BME280;52656;52.610;10.236;2023-02-17T08:56:40;100817.00;;;10.40;82.43
49072;BME280;52656;52.610;10.236;2023-02-17T08:59:07;100814.13;;;10.23;82.59
49072;BME280;52656;52.610;10.236;2023-02-17T09:01:33;100817.38;;;10.30;83.04
49072;BME280;52656;52.610;10.236;2023-02-17T09:04:00;100818.88;;;10.60;81.65
49072;BME280;52656;52.610;10.236;2023-02-17T09:06:38;100807.66;;;10.54;81.85
49072;BME280;52656;52.610;10.236;2023-02-17T09:09:05;100806.38;;;10.64;82.16
49072;BME280;52656;52.610;10.236;2023-02-17T09:11:31;100802.81;;;10.41;83.01
49072;BME280;52656;52.610;10.236;2023-02-17T09:13:56;100802.16;;;10.82;80.79
49072;BME280;52656;52.610;10.236;2023-02-17T09:16:22;100802.06;;;10.38;82.58
49072;BME280;52656;52.610;10.236;2023-02-17T09:18:50;100797.94;;;10.54;83.00
49072;BME280;52656;52.610;10.236;2023-02-17T09:21:15;100810.25;;;10.55;83.19
49072;BME280;52656;52.610;10.236;2023-02-17T09:23:42;100811.00;;;10.59;82.96
49072;BME280;52656;52.610;10.236;2023-02-17T09:26:08;100815.66;;;10.52;83.09
49072;BME280;52656;52.610;10.236;2023-02-17T09:28:34;100802.53;;;10.49;82.97
49072;BME280;52656;52.610;10.236;2023-02-17T09:33:44;100801.91;;;10.42;83.49
49072;BME280;52656;52.610;10.236;2023-02-17T09:36:12;100805.56;;;10.62;83.10
49072;BME280;52656;52.610;10.236;2023-02-17T09:38:39;100802.47;;;10.51;83.80
49072;BME280;52656;52.610;10.236;2023-02-17T09:44:01;100785.22;;;11.06;80.86
49072;BME280;52656;52.610;10.236;2023-02-17T09:46:30;100777.09;;;10.89;81.64
49072;BME280;52656;52.610;10.236;2023-02-17T09:49:02;100775.88;;;10.76;82.60
49072;BME280;52656;52.610;10.236;2023-02-17T09:51:38;100784.19;;;10.66;84.10
49072;BME280;52656;52.610;10.236;2023-02-17T09:54:20;100774.44;;;10.67;84.39
49072;BME280;52656;52.610;10.236;2023-02-17T09:56:49;100750.00;;;10.82;82.96
49072;BME280;52656;52.610;10.236;2023-02-17T09:59:40;100775.88;;;10.76;84.11
49072;BME280;52656;52.610;10.236;2023-02-17T10:02:23;100768.94;;;10.95;83.83
49072;BME280;52656;52.610;10.236;2023-02-17T10:04:51;100763.81;;;10.68;84.84
49072;BME280;52656;52.610;10.236;2023-02-17T10:07:27;100761.53;;;10.81;84.31
49072;BME280;52656;52.610;10.236;2023-02-17T10:10:18;100766.19;;;10.75;85.69
49072;BME280;52656;52.610;10.236;2023-02-17T10:12:49;100767.88;;;10.99;84.42
49072;BME280;52656;52.610;10.236;2023-02-17T10:15:39;100768.34;;;11.09;83.69
49072;BME280;52656;52.610;10.236;2023-02-17T10:18:31;100755.78;;;11.14;83.12
49072;BME280;52656;52.610;10.236;2023-02-17T10:21:03;100739.88;;;10.92;85.29
49072;BME280;52656;52.610;10.236;2023-02-17T10:23:32;100744.22;;;11.15;83.80
49072;BME280;52656;52.610;10.236;2023-02-17T10:28:57;100745.94;;;10.95;85.09
49072;BME280;52656;52.610;10.236;2023-02-17T10:31:34;100702.31;;;10.82;86.17
49072;BME280;52656;52.610;10.236;2023-02-17T10:34:07;100746.41;;;10.83;86.70
49072;BME280;52656;52.610;10.236;2023-02-17T10:42:21;100729.50;;;11.08;84.87
49072;BME280;52656;52.610;10.236;2023-02-17T10:44:50;100738.44;;;11.27;84.56
49072;BME280;52656;52.610;10.236;2023-02-17T10:47:18;100731.03;;;11.35;83.65
49072;BME280;52656;52.610;10.236;2023-02-17T10:49:49;100731.34;;;11.28;84.62
49072;BME280;52656;52.610;10.236;2023-02-17T10:52:17;100728.81;;;11.25;83.78
49072;BME280;52656;52.610;10.236;2023-02-17T10:54:56;100731.91;;;11.14;84.93
49072;BME280;52656;52.610;10.236;2023-02-17T10:57:27;100736.38;;;11.34;84.27
49072;BME280;52656;52.610;10.236;2023-02-17T10:59:56;100737.59;;;11.27;84.47
49072;BME280;52656;52.610;10.236;2023-02-17T11:02:43;100731.28;;;11.07;85.43
49072;BME280;52656;52.610;10.236;2023-02-17T11:05:37;100721.97;;;11.39;84.46
49072;BME280;52656;52.610;10.236;2023-02-17T11:08:23;100730.13;;;11.14;84.54
49072;BME280;52656;52.610;10.236;2023-02-17T11:11:21;100716.16;;;11.52;83.25
49072;BME280;52656;52.610;10.236;2023-02-17T11:16:27;100718.41;;;11.61;82.16
49072;BME280;52656;52.610;10.236;2023-02-17T11:18:54;100713.19;;;11.78;80.93
49072;BME280;52656;52.610;10.236;2023-02-17T11:21:19;100698.22;;;12.15;79.22
49072;BME280;52656;52.610;10.236;2023-02-17T11:23:46;100706.91;;;11.81;80.66
49072;BME280;52656;52.610;10.236;2023-02-17T11:26:20;100699.09;;;11.96;78.78
49072;BME280;52656;52.610;10.236;2023-02-17T11:28:46;100705.16;;;11.99;78.52
49072;BME280;52656;52.610;10.236;2023-02-17T11:31:25;100695.56;;;11.96;78.99
49072;BME280;52656;52.610;10.236;2023-02-17T11:33:51;100681.00;;;11.86;79.19
49072;BME280;52656;52.610;10.236;2023-02-17T11:36:23;100675.09;;;11.60;79.06
49072;BME280;52656;52.610;10.236;2023-02-17T11:38:49;100664.03;;;11.30;80.84
49072;BME280;52656;52.610;10.236;2023-02-17T11:41:15;100663.38;;;11.45;80.35
49072;BME280;52656;52.610;10.236;2023-02-17T11:43:53;100658.50;;;11.94;78.66
49072;BME280;52656;52.610;10.236;2023-02-17T11:46:46;100662.56;;;11.83;77.99
49072;BME280;52656;52.610;10.236;2023-02-17T11:55:03;100681.53;;;12.13;76.42
49072;BME280;52656;52.610;10.236;2023-02-17T11:57:41;100665.28;;;12.19;76.36
49072;BME280;52656;52.610;10.236;2023-02-17T12:08:39;100656.53;;;12.36;75.67
49072;BME280;52656;52.610;10.236;2023-02-17T12:19:44;100654.03;;;12.14;76.82
49072;BME280;52656;52.610;10.236;2023-02-17T12:22:17;100659.03;;;12.20;76.10
49072;BME280;52656;52.610;10.236;2023-02-17T12:35:47;100667.09;;;12.18;75.35
49072;BME280;52656;52.610;10.236;2023-02-17T12:38:21;100682.44;;;12.12;75.84
49072;BME280;52656;52.610;10.236;2023-02-17T12:41:29;100666.72;;;12.07;76.29
49072;BME280;52656;52.610;10.236;2023-02-17T12:43:52;100674.03;;;12.02;75.63
49072;BME280;52656;52.610;10.236;2023-02-17T12:46:25;100658.53;;;12.12;75.61
49072;BME280;52656;52.610;10.236;2023-02-17T12:48:59;100650.44;;;12.15;74.77
49072;BME280;52656;52.610;10.236;2023-02-17T12:51:32;100638.34;;;11.90;76.41
49072;BME280;52656;52.610;10.236;2023-02-17T12:54:05;100669.56;;;12.21;75.08
49072;BME280;52656;52.610;10.236;2023-02-17T12:56:53;100657.25;;;12.20;74.87
49072;BME280;52656;52.610;10.236;2023-02-17T12:59:26;100640.25;;;12.06;75.57
49072;BME280;52656;52.610;10.236;2023-02-17T13:02:04;100648.41;;;12.20;75.77
49072;BME280;52656;52.610;10.236;2023-02-17T13:04:32;100646.78;;;12.17;75.99
49072;BME280;52656;52.610;10.236;2023-02-17T13:07:14;100664.97;;;12.25;75.78
49072;BME280;52656;52.610;10.236;2023-02-17T13:09:46;100670.91;;;12.13;75.75
49072;BME280;52656;52.610;10.236;2023-02-17T13:14:54;100675.09;;;12.17;75.94
49072;BME280;52656;52.610;10.236;2023-02-17T13:17:34;100673.81;;;12.26;77.24
49072;BME280;52656;52.610;10.236;2023-02-17T13:22:40;100677.22;;;12.10;80.44
49072;BME280;52656;52.610;10.236;2023-02-17T13:25:06;100689.97;;;12.02;81.22
49072;BME280;52656;52.610;10.236;2023-02-17T13:27:36;100699.16;;;12.14;80.82
49072;BME280;52656;52.610;10.236;2023-02-17T13:32:34;100700.06;;;11.94;83.27
49072;BME280;52656;52.610;10.236;2023-02-17T13:35:04;100696.09;;;12.04;81.85
49072;BME280;52656;52.610;10.236;2023-02-17T13:40:55;100719.25;;;12.01;83.28
49072;BME280;52656;52.610;10.236;2023-02-17T13:42:55;100719.66;;;11.52;86.19
49072;BME280;52656;52.610;10.236;2023-02-17T13:45:40;100737.38;;;11.72;85.22
49072;BME280;52656;52.610;10.236;2023-02-17T13:48:24;100718.31;;;11.83;85.20
49072;BME280;52656;52.610;10.236;2023-02-17T13:50:52;100710.75;;;11.74;86.17
49072;BME280;52656;52.610;10.236;2023-02-17T13:53:30;100722.25;;;11.93;85.81
49072;BME280;52656;52.610;10.236;2023-02-17T13:56:21;100720.66;;;11.89;85.97
49072;BME280;52656;52.610;10.236;2023-02-17T13:58:47;100715.13;;;11.75;87.80
49072;BME280;52656;52.610;10.236;2023-02-17T14:01:13;100720.31;;;11.78;87.68
49072;BME280;52656;52.610;10.236;2023-02-17T14:03:42;100710.69;;;11.94;86.54
49072;BME280;52656;52.610;10.236;2023-02-17T14:06:17;100726.88;;;11.69;89.17
49072;BME280;52656;52.610;10.236;2023-02-17T14:08:44;100725.38;;;11.63;89.73
49072;BME280;52656;52.610;10.236;2023-02-17T14:11:10;100728.59;;;11.70;89.78
49072;BME280;52656;52.610;10.236;2023-02-17T14:13:37;100728.81;;;11.65;88.90
49072;BME280;52656;52.610;10.236;2023-02-17T14:16:04;100727.88;;;11.66;88.82